Time;durP1;ratioP1;P1;durP2;ratioP2;P2;SDS_P1;SDS_P2;PMS_P1;PMS_P2;Temp;Humidity;BMP_temperature;BMP_pressure;BME280_temperature;BME280_humidity;BME280_pressure;Samples;Min_cycle;Max_cycle;Signal;HPM_P1;HPM_P2
2023/09/02 00:00:13;;;;;;;7.00;3.42;;;12.70;99.90;;;;;;4959642;29;20133;-88
2023/09/02 00:02:40;;;;;;;5.30;3.20;;;12.70;99.90;;;;;;4944682;29;20508;-88
2023/09/02 00:05:07;;;;;;;5.30;2.90;;;12.70;99.90;;;;;;4928264;29;20043;-88
2023/09/02 00:07:33;;;;;;;5.88;2.95;;;12.70;99.90;;;;;;4974886;29;20042;-88
2023/09/02 00:10:00;;;;;;;4.80;2.90;;;12.70;99.90;;;;;;4943798;29;20415;-88
2023/09/02 00:12:27;;;;;;;6.05;3.00;;;12.60;99.90;;;;;;4927821;29;20074;-87
2023/09/02 00:14:54;;;;;;;5.88;3.13;;;12.60;99.90;;;;;;4959477;29;20072;-88
2023/09/02 00:17:21;;;;;;;5.85;3.10;;;12.60;99.90;;;;;;4927980;29;20047;-87
2023/09/02 00:19:48;;;;;;;6.28;3.33;;;12.60;99.90;;;;;;4943456;29;20103;-87
2023/09/02 00:22:14;;;;;;;5.90;3.53;;;12.60;99.90;;;;;;4943429;29;20432;-87
2023/09/02 00:24:41;;;;;;;6.05;3.42;;;12.60;99.90;;;;;;4943264;29;20035;-88
2023/09/02 00:27:08;;;;;;;7.57;3.17;;;12.60;99.90;;;;;;4962202;28;20046;-88
2023/09/02 00:29:34;;;;;;;4.93;2.92;;;12.60;99.90;;;;;;4977854;28;20050;-88
2023/09/02 00:32:01;;;;;;;5.32;2.90;;;12.50;99.90;;;;;;4994382;28;20042;-88
2023/09/02 00:34:28;;;;;;;5.47;3.38;;;12.50;99.90;;;;;;4946730;28;20054;-86
2023/09/02 00:36:54;;;;;;;5.78;3.08;;;12.50;99.90;;;;;;4977700;28;20082;-88
2023/09/02 00:39:21;;;;;;;6.30;3.28;;;12.50;99.90;;;;;;4978218;28;20046;-88
2023/09/02 00:41:51;;;;;;;8.43;3.58;;;12.50;99.90;;;;;;4977470;28;20129;-87
2023/09/02 00:44:18;;;;;;;6.38;3.75;;;12.50;99.90;;;;;;4977918;28;20047;-88
2023/09/02 00:46:48;;;;;;;7.35;3.65;;;12.50;99.90;;;;;;4977642;28;20046;-88
2023/09/02 00:49:15;;;;;;;6.45;3.92;;;12.40;99.90;;;;;;4963733;28;20039;-88
2023/09/02 00:51:41;;;;;;;5.97;3.25;;;12.40;99.90;;;;;;4977866;28;20053;-88
2023/09/02 00:54:08;;;;;;;9.02;3.90;;;12.40;99.90;;;;;;4946182;28;20132;-87
2023/09/02 00:56:36;;;;;;;5.28;3.22;;;12.40;99.90;;;;;;4977607;28;20047;-88
2023/09/02 00:59:04;;;;;;;6.53;3.85;;;12.40;99.90;;;;;;4978220;28;20487;-87
2023/09/02 01:01:33;;;;;;;6.13;3.80;;;12.40;99.90;;;;;;4964097;28;20050;-87
2023/09/02 01:04:03;;;;;;;6.45;3.90;;;12.40;99.90;;;;;;4996614;28;20038;-89
2023/09/02 01:06:31;;;;;;;6.40;3.50;;;12.40;99.90;;;;;;4996336;28;20756;-89
2023/09/02 01:08:59;;;;;;;5.93;3.80;;;12.30;99.90;;;;;;4980841;28;20068;-88
2023/09/02 01:11:26;;;;;;;5.85;3.85;;;12.40;99.90;;;;;;4980923;28;20579;-88
2023/09/02 01:13:53;;;;;;;6.97;3.97;;;12.30;99.90;;;;;;4964884;28;20050;-87
2023/09/02 01:16:19;;;;;;;5.80;3.88;;;12.30;99.90;;;;;;4980942;28;20056;-88
2023/09/02 01:18:46;;;;;;;7.05;4.28;;;12.30;99.90;;;;;;4964635;28;20053;-88
2023/09/02 01:21:19;;;;;;;6.97;3.92;;;12.30;99.90;;;;;;4980269;28;20043;-88
2023/09/02 01:24:21;;;;;;;6.45;4.15;;;12.30;99.90;;;;;;4996479;28;20129;-88
2023/09/02 01:27:03;;;;;;;9.02;4.32;;;12.30;99.90;;;;;;4931019;28;20057;-88
2023/09/02 01:29:36;;;;;;;6.28;4.22;;;12.30;99.90;;;;;;4976887;28;20043;-88
2023/09/02 01:32:07;;;;;;;8.82;4.30;;;12.30;99.90;;;;;;4976738;28;20039;-87
2023/09/02 01:34:34;;;;;;;7.50;4.30;;;12.30;99.90;;;;;;4961419;28;20039;-87
2023/09/02 01:37:04;;;;;;;6.80;4.03;;;12.30;99.90;;;;;;4961082;28;20046;-88
2023/09/02 01:39:32;;;;;;;7.63;4.88;;;12.30;99.90;;;;;;4976891;28;20038;-88
2023/09/02 01:42:02;;;;;;;6.53;4.07;;;12.30;99.90;;;;;;4986557;28;20053;-88
2023/09/02 01:44:31;;;;;;;6.88;3.80;;;12.30;99.90;;;;;;4965405;28;20509;-88
2023/09/02 01:47:01;;;;;;;6.60;4.00;;;12.20;99.90;;;;;;4979871;28;20038;-87
2023/09/02 01:49:28;;;;;;;6.25;4.40;;;12.30;99.90;;;;;;4965423;28;20041;-87
2023/09/02 01:51:56;;;;;;;10.77;4.75;;;12.20;99.90;;;;;;4963816;28;20148;-88
2023/09/02 01:54:23;;;;;;;9.52;4.70;;;12.20;99.90;;;;;;4980285;28;20124;-86
2023/09/02 01:56:50;;;;;;;9.48;4.40;;;12.20;99.90;;;;;;4964120;28;20041;-88
2023/09/02 01:59:17;;;;;;;9.02;4.55;;;12.20;99.90;;;;;;4980000;28;20391;-88
2023/09/02 02:01:44;;;;;;;9.65;5.13;;;12.20;99.90;;;;;;4979606;28;20173;-87
2023/09/02 02:04:15;;;;;;;11.30;5.40;;;12.20;99.90;;;;;;4964254;28;20042;-88
2023/09/02 02:06:43;;;;;;;8.15;4.97;;;12.20;99.90;;;;;;5012090;28;20042;-87
2023/09/02 02:09:13;;;;;;;9.45;5.15;;;12.10;99.90;;;;;;4980132;28;20042;-88
2023/09/02 02:11:39;;;;;;;8.57;4.65;;;12.10;99.90;;;;;;5012014;28;20042;-89
2023/09/02 02:14:06;;;;;;;7.55;5.20;;;12.10;99.90;;;;;;4979873;28;20104;-89
2023/09/02 02:16:33;;;;;;;8.45;4.82;;;12.10;99.90;;;;;;4995542;28;20541;-88
2023/09/02 02:19:00;;;;;;;11.75;5.60;;;12.10;99.90;;;;;;5011591;28;20046;-88
2023/09/02 02:21:28;;;;;;;10.55;6.50;;;12.10;99.90;;;;;;4979459;28;20635;-88
2023/09/02 02:23:56;;;;;;;8.43;5.63;;;12.10;99.90;;;;;;4995128;28;20042;-88
2023/09/02 02:26:23;;;;;;;9.95;5.72;;;12.10;99.90;;;;;;4995756;28;20043;-89
2023/09/02 02:28:50;;;;;;;9.15;5.55;;;12.10;99.90;;;;;;4995170;28;20050;-87
2023/09/02 02:31:17;;;;;;;10.40;6.05;;;12.10;99.90;;;;;;4979665;28;20046;-89
2023/09/02 02:33:43;;;;;;;9.60;5.78;;;12.00;99.90;;;;;;4963818;28;20462;-88
2023/09/02 02:36:10;;;;;;;10.45;6.07;;;12.00;99.90;;;;;;4978702;28;20042;-87
2023/09/02 02:38:37;;;;;;;10.55;6.50;;;12.00;99.90;;;;;;4979071;28;20621;-88
2023/09/02 02:41:03;;;;;;;11.80;7.00;;;12.00;99.90;;;;;;4963079;28;20154;-88
2023/09/02 02:43:30;;;;;;;12.32;6.40;;;12.10;99.90;;;;;;4963582;28;20046;-87
2023/09/02 02:45:57;;;;;;;10.43;6.07;;;12.00;99.90;;;;;;4979191;28;20045;-88
2023/09/02 02:48:29;;;;;;;9.93;6.32;;;12.00;99.90;;;;;;4961369;28;20047;-88
2023/09/02 02:50:57;;;;;;;11.40;6.60;;;12.00;99.90;;;;;;4971830;28;20042;-88
2023/09/02 02:53:24;;;;;;;8.68;5.80;;;12.00;99.90;;;;;;4978975;28;20045;-87
2023/09/02 02:55:50;;;;;;;12.38;6.47;;;12.00;99.90;;;;;;4994957;28;20039;-88
2023/09/02 02:58:17;;;;;;;11.50;6.50;;;12.00;99.90;;;;;;4963503;28;20104;-88
2023/09/02 03:00:46;;;;;;;10.70;6.35;;;12.00;99.90;;;;;;5009265;28;20050;-88
2023/09/02 03:03:13;;;;;;;11.32;5.88;;;12.00;99.90;;;;;;5010850;28;20057;-88
2023/09/02 03:05:41;;;;;;;13.00;6.65;;;12.00;99.90;;;;;;4994925;28;20034;-88
2023/09/02 03:08:09;;;;;;;11.63;6.18;;;12.00;99.90;;;;;;5010714;28;20121;-88
2023/09/02 03:10:36;;;;;;;11.93;6.50;;;12.00;99.90;;;;;;4994906;28;20038;-87
2023/09/02 03:13:03;;;;;;;10.38;6.68;;;11.90;99.90;;;;;;4994950;28;20097;-88
2023/09/02 03:15:31;;;;;;;11.55;6.47;;;11.90;99.90;;;;;;4994881;28;20061;-88
2023/09/02 03:17:58;;;;;;;11.68;6.70;;;11.90;99.90;;;;;;4978730;28;20046;-88
2023/09/02 03:20:24;;;;;;;8.98;6.28;;;11.90;99.90;;;;;;4963065;28;20049;-89
2023/09/02 03:22:51;;;;;;;10.63;6.90;;;11.90;99.90;;;;;;4978767;28;20039;-88
2023/09/02 03:25:18;;;;;;;10.40;6.75;;;11.90;99.90;;;;;;4978701;28;20453;-89
2023/09/02 03:27:45;;;;;;;10.70;6.28;;;11.80;99.90;;;;;;4978631;28;20050;-88
2023/09/02 03:30:12;;;;;;;10.50;5.85;;;11.80;99.90;;;;;;4964195;28;20053;-87
2023/09/02 03:32:39;;;;;;;9.55;5.95;;;11.80;99.90;;;;;;4998992;28;20042;-89
2023/09/02 03:35:07;;;;;;;9.32;5.88;;;11.80;99.90;;;;;;4966668;28;20046;-88
2023/09/02 03:37:34;;;;;;;12.15;6.65;;;11.80;99.90;;;;;;4983630;28;20042;-89
2023/09/02 03:40:03;;;;;;;11.68;7.07;;;11.80;99.90;;;;;;4982161;28;20057;-88
2023/09/02 03:42:30;;;;;;;11.02;6.45;;;11.80;99.90;;;;;;5014852;28;20073;-88
2023/09/02 03:44:57;;;;;;;10.32;6.88;;;11.80;99.90;;;;;;4965739;28;20125;-88
2023/09/02 03:47:24;;;;;;;9.88;7.00;;;11.80;99.90;;;;;;4963369;28;20167;-89
2023/09/02 03:49:51;;;;;;;12.15;7.03;;;11.80;99.90;;;;;;4947608;28;20121;-88
2023/09/02 03:52:17;;;;;;;13.20;7.43;;;11.80;99.90;;;;;;4978673;28;20479;-88
2023/09/02 03:54:44;;;;;;;10.50;7.07;;;11.70;99.90;;;;;;4947352;28;20093;-88
2023/09/02 03:57:11;;;;;;;11.10;6.95;;;11.70;99.90;;;;;;4993800;28;20038;-88
2023/09/02 03:59:37;;;;;;;11.77;7.43;;;11.80;99.90;;;;;;4966846;28;20042;-88
2023/09/02 04:02:04;;;;;;;12.50;7.82;;;11.80;99.90;;;;;;4965967;28;20046;-87
2023/09/02 04:04:31;;;;;;;11.15;7.57;;;11.80;99.90;;;;;;4982022;28;20042;-88
2023/09/02 04:06:57;;;;;;;14.68;8.35;;;11.80;99.90;;;;;;4966666;28;20137;-88
2023/09/02 04:09:24;;;;;;;14.32;7.90;;;11.80;99.90;;;;;;4998113;28;20053;-88
2023/09/02 04:11:51;;;;;;;12.35;7.93;;;11.90;99.90;;;;;;5013897;28;20042;-88
2023/09/02 04:14:18;;;;;;;12.60;7.90;;;12.00;99.90;;;;;;4997957;28;20038;-87
2023/09/02 04:16:44;;;;;;;13.38;7.95;;;12.00;99.90;;;;;;4979204;28;20104;-89
2023/09/02 04:19:17;;;;;;;13.85;7.88;;;12.00;99.90;;;;;;4963330;28;20045;-88
2023/09/02 04:21:45;;;;;;;14.27;8.65;;;12.10;99.90;;;;;;4948184;28;20393;-88
2023/09/02 04:24:11;;;;;;;12.68;8.55;;;12.10;99.90;;;;;;4962123;28;20043;-88
2023/09/02 04:26:38;;;;;;;13.02;8.23;;;12.10;99.90;;;;;;4946691;28;20077;-88
2023/09/02 04:29:05;;;;;;;14.40;8.82;;;12.20;99.90;;;;;;5011527;28;20061;-88
2023/09/02 04:31:32;;;;;;;14.23;8.48;;;12.20;99.90;;;;;;5013453;28;20038;-89
2023/09/02 04:33:58;;;;;;;14.07;8.35;;;12.40;99.90;;;;;;4997324;28;20096;-87
2023/09/02 04:36:25;;;;;;;15.88;9.27;;;12.30;99.90;;;;;;4964806;28;20052;-87
2023/09/02 04:38:52;;;;;;;14.52;9.20;;;12.30;99.90;;;;;;5001812;28;20101;-88
2023/09/02 04:41:18;;;;;;;20.70;9.32;;;12.30;99.90;;;;;;4976945;28;20053;-88
2023/09/02 04:43:45;;;;;;;14.13;8.98;;;12.30;99.90;;;;;;4961315;28;20558;-88
2023/09/02 04:46:12;;;;;;;16.60;8.70;;;12.40;99.90;;;;;;4977766;28;20459;-88
2023/09/02 04:48:38;;;;;;;14.93;9.13;;;12.40;99.90;;;;;;4946383;28;20442;-89
2023/09/02 04:51:07;;;;;;;13.45;9.43;;;12.40;99.90;;;;;;4978182;28;20511;-88
2023/09/02 04:53:34;;;;;;;13.02;8.75;;;12.40;99.90;;;;;;4946621;28;20043;-87
2023/09/02 04:56:04;;;;;;;15.90;8.73;;;12.40;99.90;;;;;;4961839;28;20047;-87
2023/09/02 04:58:31;;;;;;;16.02;9.15;;;12.40;99.90;;;;;;4978251;28;20128;-88
2023/09/02 05:01:11;;;;;;;14.38;8.90;;;12.40;99.90;;;;;;4946976;28;20078;-89
2023/09/02 05:03:38;;;;;;;14.93;9.13;;;12.40;99.90;;;;;;4977827;28;20039;-88
2023/09/02 05:06:08;;;;;;;15.02;10.02;;;12.40;99.90;;;;;;4977615;28;20403;-88
2023/09/02 05:08:34;;;;;;;16.40;9.50;;;12.40;99.90;;;;;;4977226;28;20043;-88
2023/09/02 05:11:03;;;;;;;14.65;9.23;;;12.40;99.90;;;;;;4993074;28;20655;-88
2023/09/02 05:13:30;;;;;;;16.23;9.18;;;12.40;99.90;;;;;;4977548;28;20407;-88
2023/09/02 05:15:57;;;;;;;18.30;9.57;;;12.50;99.90;;;;;;4961559;28;20062;-88
2023/09/02 05:18:24;;;;;;;14.93;9.38;;;12.50;99.90;;;;;;4945708;28;20042;-88
2023/09/02 05:20:55;;;;;;;16.65;10.15;;;12.60;99.90;;;;;;4956318;28;20039;-88
2023/09/02 05:23:22;;;;;;;14.95;9.60;;;12.60;99.90;;;;;;4996536;28;20479;-87
2023/09/02 05:25:56;;;;;;;15.88;10.32;;;12.60;99.90;;;;;;4996904;28;20046;-88
2023/09/02 05:28:24;;;;;;;15.77;10.30;;;12.60;99.90;;;;;;4980358;28;20050;-88
2023/09/02 05:30:51;;;;;;;18.17;9.77;;;12.70;99.90;;;;;;4989976;28;20568;-88
2023/09/02 05:33:18;;;;;;;16.27;10.00;;;12.70;99.90;;;;;;4992541;28;20133;-88
2023/09/02 05:35:44;;;;;;;17.00;9.60;;;12.70;99.90;;;;;;4961307;28;20482;-88
2023/09/02 05:38:11;;;;;;;14.10;10.20;;;12.70;99.90;;;;;;4977436;28;20558;-88
2023/09/02 05:40:44;;;;;;;14.18;9.50;;;12.70;99.90;;;;;;4960671;28;20105;-87
2023/09/02 05:43:11;;;;;;;16.80;9.70;;;12.80;99.90;;;;;;4977256;28;20035;-86
2023/09/02 05:45:38;;;;;;;16.20;10.02;;;12.80;99.90;;;;;;4945274;28;20046;-88
2023/09/02 05:48:05;;;;;;;15.20;9.98;;;12.80;99.90;;;;;;4960793;28;20508;-88
2023/09/02 05:50:32;;;;;;;17.55;9.90;;;12.80;99.90;;;;;;4992896;28;20089;-88
2023/09/02 05:52:59;;;;;;;15.05;9.43;;;12.80;99.90;;;;;;4960880;28;20462;-88
2023/09/02 05:55:26;;;;;;;16.58;9.57;;;12.80;99.90;;;;;;4976478;28;20380;-88
2023/09/02 05:57:52;;;;;;;17.52;9.65;;;12.80;99.90;;;;;;4992836;28;20110;-88
2023/09/02 06:00:19;;;;;;;16.17;9.63;;;12.80;99.90;;;;;;4944367;28;20049;-84
2023/09/02 06:02:46;;;;;;;15.40;9.23;;;12.80;99.90;;;;;;4992182;28;20035;-88
2023/09/02 06:05:13;;;;;;;13.88;9.73;;;12.80;99.90;;;;;;4960677;28;20081;-88
2023/09/02 06:07:39;;;;;;;15.20;9.57;;;12.80;99.90;;;;;;4944800;28;20051;-88
2023/09/02 06:10:06;;;;;;;18.85;10.30;;;12.80;99.90;;;;;;4960617;28;20043;-88
2023/09/02 06:12:33;;;;;;;16.17;9.65;;;12.80;99.90;;;;;;4961851;28;20798;-88
2023/09/02 06:15:00;;;;;;;16.75;10.73;;;12.80;99.90;;;;;;4951282;28;20428;-88
2023/09/02 06:17:30;;;;;;;16.45;9.90;;;12.90;99.90;;;;;;4976483;28;20516;-88
2023/09/02 06:19:58;;;;;;;15.40;10.23;;;12.90;99.90;;;;;;4945594;28;20496;-88
2023/09/02 06:22:25;;;;;;;16.83;10.35;;;12.90;99.90;;;;;;4960588;28;20078;-88
2023/09/02 06:24:55;;;;;;;18.98;10.55;;;13.00;99.90;;;;;;4960490;28;20137;-88
2023/09/02 06:27:21;;;;;;;17.23;11.18;;;13.10;99.90;;;;;;4975761;28;20039;-89
2023/09/02 06:29:48;;;;;;;17.15;11.40;;;13.10;99.90;;;;;;4960498;28;20421;-88
2023/09/02 06:32:15;;;;;;;18.60;11.40;;;13.10;99.90;;;;;;4976162;28;20148;-89
2023/09/02 06:34:42;;;;;;;20.98;12.25;;;13.20;99.90;;;;;;4984530;28;20051;-89
2023/09/02 06:37:08;;;;;;;19.20;11.65;;;13.20;99.90;;;;;;4979841;28;20048;-88
2023/09/02 06:39:35;;;;;;;17.83;11.45;;;13.30;99.90;;;;;;4979813;28;20042;-88
2023/09/02 06:42:02;;;;;;;18.60;11.70;;;13.40;99.90;;;;;;4995441;28;20069;-88
2023/09/02 06:44:29;;;;;;;17.75;11.52;;;13.40;99.90;;;;;;4963509;28;20475;-88
2023/09/02 06:46:56;;;;;;;20.40;11.38;;;13.50;99.90;;;;;;4963503;28;20095;-88
2023/09/02 06:49:22;;;;;;;16.50;11.10;;;13.50;99.90;;;;;;4979214;28;20081;-88
2023/09/02 06:51:49;;;;;;;17.02;11.90;;;13.60;99.90;;;;;;4995123;28;20046;-89
2023/09/02 06:54:16;;;;;;;19.48;12.80;;;13.70;99.90;;;;;;4962966;28;20101;-89
2023/09/02 06:56:44;;;;;;;20.88;12.07;;;13.80;99.90;;;;;;4959671;28;20109;-89
2023/09/02 06:59:10;;;;;;;19.55;12.70;;;13.80;99.90;;;;;;4944469;28;20133;-89
2023/09/02 07:01:37;;;;;;;19.52;13.07;;;13.90;99.90;;;;;;4959882;28;20134;-89
2023/09/02 07:04:04;;;;;;;19.85;13.60;;;14.00;99.90;;;;;;4968237;28;20141;-89
2023/09/02 07:06:30;;;;;;;20.50;13.95;;;14.10;99.90;;;;;;4962569;28;20059;-88
2023/09/02 07:08:57;;;;;;;20.25;13.05;;;14.10;99.90;;;;;;4979198;28;20081;-89
2023/09/02 07:11:24;;;;;;;19.92;13.07;;;14.20;99.90;;;;;;4978931;28;20100;-89
2023/09/02 07:13:52;;;;;;;21.10;12.75;;;14.30;99.90;;;;;;4959925;28;20454;-88
2023/09/02 07:16:19;;;;;;;22.02;13.23;;;14.40;99.90;;;;;;4960032;28;20522;-88
2023/09/02 07:18:46;;;;;;;19.65;13.45;;;14.50;99.90;;;;;;4959609;28;20038;-88
2023/09/02 07:21:14;;;;;;;24.17;14.82;;;14.60;99.90;;;;;;4959834;28;20050;-89
2023/09/02 07:23:40;;;;;;;19.55;12.60;;;14.70;99.90;;;;;;4959507;28;20483;-89
2023/09/02 07:26:07;;;;;;;21.60;12.63;;;14.80;99.90;;;;;;4959650;28;20049;-89
2023/09/02 07:28:36;;;;;;;22.23;12.32;;;14.90;99.90;;;;;;4990770;28;20415;-88
2023/09/02 07:31:05;;;;;;;15.82;11.20;;;15.00;99.90;;;;;;4991647;28;20066;-87
2023/09/02 07:33:31;;;;;;;20.50;11.80;;;15.10;99.90;;;;;;4975630;28;20053;-89
2023/09/02 07:35:59;;;;;;;17.67;11.50;;;15.20;99.90;;;;;;4976316;28;20038;-88
2023/09/02 07:38:26;;;;;;;18.88;11.45;;;15.40;99.90;;;;;;4975583;28;20086;-89
2023/09/02 07:40:53;;;;;;;20.92;11.98;;;15.40;99.90;;;;;;4959069;28;20302;-89
2023/09/02 07:43:19;;;;;;;19.05;12.07;;;15.60;99.90;;;;;;4959296;28;20526;-89
2023/09/02 07:45:48;;;;;;;17.60;11.63;;;15.70;99.90;;;;;;4974858;28;20046;-89
2023/09/02 07:48:14;;;;;;;19.15;12.55;;;15.80;99.90;;;;;;4944184;28;20041;-89
2023/09/02 07:50:42;;;;;;;19.73;12.77;;;15.90;99.90;;;;;;4959213;28;20131;-89
2023/09/02 07:53:08;;;;;;;20.73;12.48;;;16.00;99.90;;;;;;4991023;28;20504;-90
2023/09/02 07:55:35;;;;;;;18.65;12.45;;;16.10;99.90;;;;;;4943196;28;20077;-88
2023/09/02 07:58:03;;;;;;;20.35;12.27;;;16.20;99.90;;;;;;4955820;29;20047;-89
2023/09/02 08:00:32;;;;;;;18.70;12.70;;;16.30;99.90;;;;;;4963859;28;20045;-89
2023/09/02 08:02:59;;;;;;;22.08;12.52;;;16.40;99.90;;;;;;4990371;28;20097;-90
2023/09/02 08:05:25;;;;;;;19.98;13.23;;;16.60;99.90;;;;;;4959025;28;20035;-89
2023/09/02 08:07:52;;;;;;;18.15;12.15;;;16.70;99.90;;;;;;4969378;28;20035;-89
2023/09/02 08:10:19;;;;;;;20.85;13.20;;;16.80;99.90;;;;;;4944081;28;20122;-89
2023/09/02 08:12:46;;;;;;;19.27;12.30;;;16.90;99.90;;;;;;4990324;28;20050;-88
2023/09/02 08:15:13;;;;;;;19.35;11.95;;;17.00;99.90;;;;;;4958229;28;20050;-88
2023/09/02 08:17:41;;;;;;;18.95;12.18;;;17.20;99.90;;;;;;4962014;28;20126;-87
2023/09/02 08:20:09;;;;;;;17.58;12.10;;;17.30;99.90;;;;;;4962354;28;21017;-88
2023/09/02 08:22:39;;;;;;;17.85;11.70;;;17.40;99.90;;;;;;4961500;28;20050;-88
2023/09/02 08:25:06;;;;;;;19.30;11.98;;;17.40;99.90;;;;;;4987232;28;20042;-86
2023/09/02 08:27:33;;;;;;;19.95;11.20;;;17.60;99.90;;;;;;4989215;28;20064;-89
2023/09/02 08:30:00;;;;;;;17.85;10.88;;;17.70;99.90;;;;;;4949999;28;20125;-88
2023/09/02 08:32:33;;;;;;;17.77;11.30;;;17.80;99.90;;;;;;4982257;28;20444;-88
2023/09/02 08:35:00;;;;;;;19.00;10.85;;;18.00;99.90;;;;;;4977860;28;20039;-88
2023/09/02 08:37:30;;;;;;;17.60;11.02;;;18.10;99.90;;;;;;4977259;28;20053;-88
2023/09/02 08:39:58;;;;;;;17.35;10.73;;;18.20;99.90;;;;;;4957225;28;20047;-88
2023/09/02 08:42:25;;;;;;;17.23;10.73;;;18.30;99.90;;;;;;4969986;28;20046;-88
2023/09/02 08:44:55;;;;;;;15.27;10.57;;;18.40;99.90;;;;;;4961083;28;20487;-87
2023/09/02 08:47:23;;;;;;;16.67;10.15;;;18.60;99.90;;;;;;4986305;28;20490;-88
2023/09/02 08:49:51;;;;;;;16.17;10.18;;;18.70;99.90;;;;;;4984959;28;20046;-87
2023/09/02 08:52:18;;;;;;;18.25;9.95;;;18.70;99.90;;;;;;4977833;28;20042;-87
2023/09/02 08:54:45;;;;;;;15.00;9.90;;;18.80;99.90;;;;;;4961010;28;20049;-88
2023/09/02 08:57:16;;;;;;;12.63;8.93;;;18.80;99.90;;;;;;4997419;28;20038;-89
2023/09/02 08:59:42;;;;;;;13.70;8.80;;;19.00;99.90;;;;;;4994372;28;20403;-90
2023/09/02 09:02:12;;;;;;;18.10;10.30;;;19.10;99.90;;;;;;4977899;28;20038;-89
2023/09/02 09:04:39;;;;;;;15.40;10.27;;;19.20;99.90;;;;;;4961748;28;20046;-89
2023/09/02 09:07:08;;;;;;;16.00;9.65;;;19.20;99.90;;;;;;4969458;28;20050;-89
2023/09/02 09:09:37;;;;;;;14.65;9.13;;;19.30;99.90;;;;;;4994374;28;20045;-89
2023/09/02 09:12:06;;;;;;;17.00;9.48;;;19.30;99.90;;;;;;4976704;28;20049;-89
2023/09/02 09:14:36;;;;;;;16.40;9.77;;;19.50;99.90;;;;;;4977261;28;20518;-88
2023/09/02 09:17:04;;;;;;;17.35;10.85;;;19.60;99.90;;;;;;4992525;28;20064;-88
2023/09/02 09:19:32;;;;;;;18.02;10.05;;;19.60;99.90;;;;;;5005716;28;20045;-88
2023/09/02 09:22:02;;;;;;;16.25;10.15;;;19.70;99.90;;;;;;5012112;28;20129;-88
2023/09/02 09:24:29;;;;;;;16.38;10.10;;;19.50;99.90;;;;;;4963096;28;20446;-88
2023/09/02 09:26:59;;;;;;;18.67;11.50;;;19.50;99.90;;;;;;4977054;28;20062;-89
2023/09/02 09:29:26;;;;;;;23.73;11.90;;;19.60;99.90;;;;;;4982717;28;20062;-89
2023/09/02 09:32:15;;;;;;;17.15;10.70;;;19.70;99.90;;;;;;4941811;29;20125;-89
2023/09/02 09:34:44;;;;;;;17.48;10.70;;;19.80;99.90;;;;;;4952516;28;20042;-88
2023/09/02 09:37:11;;;;;;;17.13;10.40;;;19.70;99.90;;;;;;4976201;28;20042;-88
2023/09/02 09:39:51;;;;;;;16.77;10.63;;;19.70;99.90;;;;;;4973314;28;20047;-88
2023/09/02 09:42:33;;;;;;;16.17;10.93;;;19.80;99.90;;;;;;4957106;29;20066;-88
2023/09/02 09:45:02;;;;;;;15.50;10.75;;;19.80;99.90;;;;;;4957032;29;20035;-88
2023/09/02 09:47:29;;;;;;;16.88;9.95;;;19.80;99.90;;;;;;4974037;28;20043;-88
2023/09/02 09:50:17;;;;;;;14.90;10.15;;;19.60;99.90;;;;;;4960164;28;20034;-87
2023/09/02 09:53:01;;;;;;;15.85;10.13;;;19.50;99.90;;;;;;4959421;28;20077;-89
2023/09/02 09:55:30;;;;;;;17.73;9.75;;;19.30;99.90;;;;;;4960783;28;20783;-88
2023/09/02 09:57:58;;;;;;;15.77;9.95;;;19.40;99.90;;;;;;4970866;29;20047;-87
2023/09/02 10:00:27;;;;;;;21.67;10.68;;;19.60;99.90;;;;;;4956498;28;20118;-88
2023/09/02 10:02:56;;;;;;;15.60;9.85;;;19.60;99.90;;;;;;4972470;29;20035;-89
2023/09/02 10:05:31;;;;;;;16.23;9.90;;;19.80;99.90;;;;;;4957773;28;20039;-90
2023/09/02 10:08:06;;;;;;;14.77;10.50;;;20.00;99.90;;;;;;4976092;28;20043;-91
2023/09/02 10:10:37;;;;;;;15.15;9.85;;;20.20;99.90;;;;;;4960689;28;20047;-90
2023/09/02 10:13:05;;;;;;;16.55;9.23;;;20.40;99.90;;;;;;4991648;28;20074;-88
2023/09/02 10:15:32;;;;;;;14.95;9.80;;;20.60;99.90;;;;;;4976006;28;20045;-89
2023/09/02 10:18:01;;;;;;;16.83;10.25;;;20.70;99.90;;;;;;4991418;28;20497;-88
2023/09/02 10:20:30;;;;;;;17.92;9.32;;;20.90;99.90;;;;;;4975460;28;20039;-87
2023/09/02 10:23:07;;;;;;;14.02;9.38;;;21.00;99.90;;;;;;4959164;28;20057;-87
2023/09/02 10:26:08;;;;;;;15.02;8.73;;;21.00;99.90;;;;;;4975543;28;20039;-88
2023/09/02 10:28:39;;;;;;;13.70;7.90;;;21.20;99.90;;;;;;4991202;28;20080;-87
2023/09/02 10:31:21;;;;;;;15.82;8.63;;;21.30;99.90;;;;;;4974895;28;20507;-87
2023/09/02 10:34:10;;;;;;;13.85;9.13;;;21.30;99.90;;;;;;4974972;28;20045;-85
2023/09/02 10:36:41;;;;;;;13.93;8.35;;;21.20;99.90;;;;;;4975245;28;20412;-86
2023/09/02 10:39:27;;;;;;;11.90;7.45;;;21.00;99.90;;;;;;4971853;28;20130;-85
2023/09/02 10:41:55;;;;;;;13.80;7.80;;;20.80;99.90;;;;;;4972159;28;20042;-87
2023/09/02 10:44:24;;;;;;;12.75;7.82;;;20.60;99.90;;;;;;4974853;28;20057;-87
2023/09/02 10:46:52;;;;;;;11.93;6.78;;;20.40;99.90;;;;;;4975315;28;20167;-87
2023/09/02 10:49:19;;;;;;;11.25;5.53;;;20.20;99.90;;;;;;4959334;28;20039;-87
2023/09/02 10:51:47;;;;;;;9.95;5.70;;;20.10;99.90;;;;;;4959360;28;20043;-87
2023/09/02 10:54:13;;;;;;;11.27;7.00;;;20.00;99.90;;;;;;4974445;28;20081;-87
2023/09/02 10:56:40;;;;;;;12.18;6.03;;;20.10;99.90;;;;;;4959077;28;20465;-87
2023/09/02 10:59:07;;;;;;;15.52;7.50;;;20.10;99.90;;;;;;4959165;28;20038;-88
2023/09/02 11:01:48;;;;;;;14.52;7.30;;;20.10;99.90;;;;;;4974888;28;20046;-87
2023/09/02 11:04:59;;;;;;;10.60;6.75;;;20.20;99.90;;;;;;4974168;28;20155;-87
2023/09/02 11:07:26;;;;;;;29.17;12.57;;;20.50;99.90;;;;;;4967540;28;20057;-86
2023/09/02 11:09:55;;;;;;;13.30;7.40;;;20.70;99.90;;;;;;4974527;28;20403;-89
2023/09/02 11:12:22;;;;;;;15.73;7.70;;;20.90;99.90;;;;;;4964620;28;20046;-89
2023/09/02 11:15:07;;;;;;;12.32;7.65;;;21.10;99.90;;;;;;4959427;28;20455;-89
2023/09/02 11:17:36;;;;;;;9.77;6.22;;;21.30;99.90;;;;;;4960958;29;20109;-89
2023/09/02 11:20:07;;;;;;;12.52;6.28;;;21.40;99.90;;;;;;4960038;28;20122;-90
2023/09/02 11:22:55;;;;;;;11.80;6.05;;;21.50;99.90;;;;;;4964096;28;20046;-89
2023/09/02 11:25:38;;;;;;;11.27;6.47;;;21.60;99.90;;;;;;4974656;28;20407;-89
2023/09/02 11:28:07;;;;;;;11.32;6.13;;;21.50;99.90;;;;;;4952577;28;20039;-89
2023/09/02 11:30:38;;;;;;;10.43;6.25;;;21.30;99.90;;;;;;4957710;28;20053;-88
2023/09/02 11:33:06;;;;;;;11.50;6.53;;;21.20;99.90;;;;;;4958574;28;20042;-88
2023/09/02 11:35:35;;;;;;;11.95;6.70;;;21.10;99.90;;;;;;4975166;28;20047;-89
2023/09/02 11:38:03;;;;;;;11.40;6.28;;;21.00;99.90;;;;;;4961927;28;20050;-89
2023/09/02 11:40:30;;;;;;;12.20;6.78;;;21.20;99.90;;;;;;4975041;28;20046;-90
2023/09/02 11:42:59;;;;;;;11.57;5.65;;;21.30;99.90;;;;;;4945444;28;20121;-90
2023/09/02 11:45:34;;;;;;;9.25;5.05;;;21.50;99.90;;;;;;4974710;28;20035;-89
2023/09/02 11:48:05;;;;;;;;;;;21.50;99.90;;;;;;4979084;28;20038;-89
2023/09/02 11:50:32;;;;;;;8.40;5.43;;;21.60;99.90;;;;;;5000883;28;19925;-89
2023/09/02 11:52:59;;;;;;;9.82;6.22;;;21.80;99.90;;;;;;4962562;28;20043;-88
2023/09/02 11:55:26;;;;;;;12.30;5.82;;;21.90;99.90;;;;;;4978543;28;20065;-89
2023/09/02 11:57:53;;;;;;;9.68;5.85;;;21.90;99.90;;;;;;4955428;29;20043;-89
2023/09/02 12:00:24;;;;;;;9.68;5.40;;;21.90;99.90;;;;;;4971900;28;20043;-90
2023/09/02 12:02:55;;;;;;;8.70;5.80;;;22.10;99.90;;;;;;4978115;28;20062;-89
2023/09/02 12:05:21;;;;;;;8.02;5.40;;;22.10;99.90;;;;;;4962287;28;20039;-87
2023/09/02 12:07:50;;;;;;;10.02;5.20;;;22.20;99.90;;;;;;4946074;28;20562;-87
2023/09/02 12:10:18;;;;;;;10.23;5.25;;;22.30;99.90;;;;;;4975198;28;20121;-87
2023/09/02 12:12:48;;;;;;;8.77;5.03;;;22.40;99.90;;;;;;4965449;28;20045;-87
2023/09/02 12:15:20;;;;;;;9.95;5.30;;;22.50;99.90;;;;;;4962752;28;20143;-87
2023/09/02 12:17:48;;;;;;;11.52;5.00;;;22.50;99.90;;;;;;4977811;28;20471;-87
2023/09/02 12:20:19;;;;;;;10.27;4.78;;;22.50;99.90;;;;;;4987111;28;20072;-87
2023/09/02 12:22:49;;;;;;;12.90;4.68;;;22.40;99.90;;;;;;4963293;28;20043;-87
2023/09/02 12:25:23;;;;;;;12.23;4.45;;;22.40;99.90;;;;;;4977235;28;20121;-87
2023/09/02 12:27:51;;;;;;;10.68;5.35;;;22.40;99.90;;;;;;4993398;28;20130;-87
2023/09/02 12:30:30;;;;;;;12.27;4.85;;;22.40;99.90;;;;;;4962117;28;20508;-87
2023/09/02 12:32:58;;;;;;;9.45;4.75;;;22.30;99.90;;;;;;4968526;29;20233;-87
2023/09/02 12:35:25;;;;;;;9.20;4.55;;;22.30;99.90;;;;;;4941991;29;20455;-88
2023/09/02 12:38:08;;;;;;;10.93;4.70;;;22.30;99.90;;;;;;4958124;29;20110;-87
2023/09/02 12:40:35;;;;;;;10.15;4.47;;;22.30;99.90;;;;;;4962087;28;20171;-88
2023/09/02 12:43:02;;;;;;;7.93;4.32;;;22.30;99.90;;;;;;4993391;28;20471;-88